Time;durP1;ratioP1;P1;durP2;ratioP2;P2;SDS_P1;SDS_P2;PMS_P1;PMS_P2;Temp;Humidity;BMP_temperature;BMP_pressure;BME280_temperature;BME280_humidity;BME280_pressure;Samples;Min_cycle;Max_cycle;Signal;HPM_P1;HPM_P2
2023/09/13 00:00:54;;;;;;;8.23;5.33;;;19.40;99.90;;;;;;4989978;28;20493;-66
2023/09/13 00:03:21;;;;;;;7.20;5.07;;;19.50;99.90;;;;;;4986418;28;20992;-65
2023/09/13 00:05:48;;;;;;;6.60;5.27;;;19.50;99.90;;;;;;4991873;28;20470;-66
2023/09/13 00:08:15;;;;;;;8.97;5.97;;;19.40;99.90;;;;;;4985730;28;20480;-66
2023/09/13 00:10:44;;;;;;;9.07;5.33;;;19.40;99.90;;;;;;5003799;28;21322;-66
2023/09/13 00:13:12;;;;;;;7.17;5.30;;;19.40;99.90;;;;;;4991632;28;20485;-65
2023/09/13 00:15:43;;;;;;;7.30;4.47;;;19.40;99.90;;;;;;4994720;28;20524;-66
2023/09/13 00:18:09;;;;;;;5.23;4.43;;;19.50;99.90;;;;;;4998900;28;20562;-66
2023/09/13 00:20:38;;;;;;;7.27;4.47;;;19.60;99.90;;;;;;4992059;28;20640;-65
2023/09/13 00:23:05;;;;;;;6.33;4.73;;;19.80;99.90;;;;;;4990739;28;20511;-66
2023/09/13 00:25:32;;;;;;;7.50;4.63;;;19.90;99.90;;;;;;4982456;28;20477;-66
2023/09/13 00:27:59;;;;;;;8.17;3.80;;;20.10;99.90;;;;;;4996369;28;21027;-65
2023/09/13 00:30:27;;;;;;;5.67;4.87;;;20.10;99.90;;;;;;5004643;28;20478;-66
2023/09/13 00:32:54;;;;;;;6.63;4.23;;;19.90;99.90;;;;;;4990969;28;21070;-66
2023/09/13 00:35:20;;;;;;;6.07;4.40;;;19.90;99.90;;;;;;4992976;28;20578;-66
2023/09/13 00:37:49;;;;;;;5.60;4.43;;;19.90;99.90;;;;;;4988150;28;20470;-66
2023/09/13 00:40:16;;;;;;;8.33;4.53;;;19.90;99.90;;;;;;4989840;28;20477;-66
2023/09/13 00:42:43;;;;;;;4.70;3.87;;;19.90;99.90;;;;;;4989041;28;21104;-66
2023/09/13 00:45:09;;;;;;;9.00;5.00;;;19.80;99.90;;;;;;4990092;28;20482;-66
2023/09/13 00:47:38;;;;;;;6.77;5.13;;;19.80;99.90;;;;;;4990458;28;20489;-66
2023/09/13 00:50:09;;;;;;;6.90;5.00;;;19.60;99.90;;;;;;4992641;28;20645;-66
2023/09/13 00:52:36;;;;;;;7.33;5.00;;;19.60;99.90;;;;;;4992094;28;20480;-66
2023/09/13 00:55:04;;;;;;;6.80;4.63;;;19.50;99.90;;;;;;4993994;28;20481;-66
2023/09/13 00:57:32;;;;;;;7.03;5.07;;;19.50;99.90;;;;;;4988264;28;20992;-66
2023/09/13 00:59:59;;;;;;;8.23;4.70;;;19.50;99.90;;;;;;4990800;28;20478;-66
2023/09/13 01:02:26;;;;;;;6.03;4.67;;;19.50;99.90;;;;;;4985707;28;20476;-66
2023/09/13 01:04:54;;;;;;;6.73;4.80;;;19.50;99.90;;;;;;4986453;28;20480;-65
2023/09/13 01:07:21;;;;;;;5.30;3.57;;;19.50;99.90;;;;;;4971307;28;20473;-65
2023/09/13 01:09:48;;;;;;;7.50;4.60;;;19.50;99.90;;;;;;4999420;28;20566;-65
2023/09/13 01:12:14;;;;;;;5.20;4.40;;;19.50;99.90;;;;;;4990126;28;20489;-65
2023/09/13 01:14:43;;;;;;;8.77;4.70;;;19.40;99.90;;;;;;4988326;28;20483;-65
2023/09/13 01:17:15;;;;;;;5.97;4.23;;;19.30;99.90;;;;;;4991707;28;20482;-65
2023/09/13 01:19:52;;;;;;;6.83;4.50;;;19.30;99.90;;;;;;4990271;28;20870;-65
2023/09/13 01:23:02;;;;;;;5.90;4.30;;;19.20;99.90;;;;;;4991190;28;20567;-65
2023/09/13 01:25:51;;;;;;;5.70;4.13;;;19.30;99.90;;;;;;4978524;28;20536;-65
2023/09/13 01:28:40;;;;;;;7.50;4.80;;;19.40;99.90;;;;;;4990883;28;20830;-65
2023/09/13 01:31:09;;;;;;;7.20;4.60;;;19.50;99.90;;;;;;4990148;28;20481;-65
2023/09/13 01:33:36;;;;;;;6.63;3.97;;;19.60;99.90;;;;;;4987757;28;20489;-66
2023/09/13 01:36:03;;;;;;;5.17;4.67;;;19.60;99.90;;;;;;4987616;28;20481;-66
2023/09/13 01:38:31;;;;;;;6.87;4.10;;;19.60;99.90;;;;;;4991077;28;20962;-66
2023/09/13 01:41:03;;;;;;;7.17;4.67;;;19.60;99.90;;;;;;4990197;28;20480;-66
2023/09/13 01:43:32;;;;;;;7.53;4.90;;;19.60;99.90;;;;;;4984600;28;20918;-66
2023/09/13 01:46:00;;;;;;;6.40;4.70;;;19.60;99.90;;;;;;4988331;28;20839;-66
2023/09/13 01:48:27;;;;;;;6.03;4.73;;;19.50;99.90;;;;;;4985217;28;20884;-66
2023/09/13 01:50:54;;;;;;;6.87;4.80;;;19.50;99.90;;;;;;4989032;28;20840;-66
2023/09/13 01:53:21;;;;;;;10.60;5.40;;;19.50;99.90;;;;;;4981138;28;21975;-66
2023/09/13 01:55:48;;;;;;;7.57;5.70;;;19.30;99.90;;;;;;4998320;28;20494;-66
2023/09/13 01:58:15;;;;;;;5.73;4.23;;;19.30;99.90;;;;;;4989202;28;20492;-66
2023/09/13 02:00:43;;;;;;;11.23;4.77;;;19.20;99.90;;;;;;4975273;28;21067;-66
2023/09/13 02:03:10;;;;;;;5.23;4.77;;;19.30;99.90;;;;;;5006193;28;20488;-66
2023/09/13 02:05:36;;;;;;;9.80;6.23;;;19.40;99.90;;;;;;4998489;28;20949;-66
2023/09/13 02:08:04;;;;;;;7.97;5.70;;;19.30;99.90;;;;;;4998070;28;20528;-65
2023/09/13 02:10:30;;;;;;;8.50;5.63;;;19.50;99.90;;;;;;4994911;28;20808;-66
2023/09/13 02:12:59;;;;;;;8.00;5.37;;;19.50;99.90;;;;;;4980813;28;20490;-65
2023/09/13 02:15:27;;;;;;;7.73;5.70;;;19.50;99.90;;;;;;4981326;28;20488;-65
2023/09/13 02:17:55;;;;;;;12.30;6.70;;;19.60;99.90;;;;;;4991637;28;20474;-66
2023/09/13 02:20:22;;;;;;;8.53;5.90;;;19.70;99.90;;;;;;4997128;28;20465;-66
2023/09/13 02:22:48;;;;;;;9.37;6.20;;;19.60;99.90;;;;;;4983209;28;20486;-66
2023/09/13 02:25:16;;;;;;;11.50;6.30;;;19.70;99.90;;;;;;4989682;28;20516;-65
2023/09/13 02:27:43;;;;;;;8.30;6.27;;;19.70;99.90;;;;;;4981775;28;20596;-66
2023/09/13 02:30:10;;;;;;;6.77;5.00;;;19.70;99.90;;;;;;4998658;28;20499;-66
2023/09/13 02:32:37;;;;;;;8.00;5.60;;;19.60;99.90;;;;;;4994826;28;20485;-66
2023/09/13 02:35:05;;;;;;;8.13;5.10;;;19.60;99.90;;;;;;4984509;28;21294;-66
2023/09/13 02:37:32;;;;;;;8.73;4.33;;;19.60;99.90;;;;;;4984782;28;20540;-66
2023/09/13 02:39:59;;;;;;;5.17;4.23;;;19.70;99.90;;;;;;4989808;28;20960;-66
2023/09/13 02:42:27;;;;;;;9.83;5.70;;;19.70;99.90;;;;;;4982815;28;20999;-66
2023/09/13 02:44:54;;;;;;;7.40;5.57;;;19.60;99.90;;;;;;4989266;28;20486;-66
2023/09/13 02:47:21;;;;;;;7.20;6.33;;;19.50;99.90;;;;;;4986997;28;20811;-66
2023/09/13 02:49:48;;;;;;;9.37;6.60;;;19.50;99.90;;;;;;4997466;28;20505;-66
2023/09/13 02:52:18;;;;;;;7.83;5.87;;;19.40;99.90;;;;;;4986251;28;20497;-65
2023/09/13 02:54:44;;;;;;;8.27;5.10;;;19.40;99.90;;;;;;4990889;28;20490;-66
2023/09/13 02:57:11;;;;;;;8.97;5.87;;;19.50;99.90;;;;;;4988798;28;21528;-66
2023/09/13 02:59:38;;;;;;;9.03;5.80;;;19.50;99.90;;;;;;4997853;28;20480;-66
2023/09/13 03:02:05;;;;;;;6.80;4.97;;;19.40;99.90;;;;;;4985989;28;21126;-65
2023/09/13 03:04:31;;;;;;;8.13;5.23;;;19.40;99.90;;;;;;4982776;28;20482;-66
2023/09/13 03:06:58;;;;;;;9.43;5.47;;;19.40;99.90;;;;;;4996034;28;20508;-66
2023/09/13 03:09:26;;;;;;;10.20;5.80;;;19.50;99.90;;;;;;4995647;28;20834;-66
2023/09/13 03:11:53;;;;;;;11.30;6.50;;;19.60;99.90;;;;;;4993568;28;21147;-66
2023/09/13 03:14:21;;;;;;;9.70;6.50;;;19.60;99.90;;;;;;5007722;28;20488;-65
2023/09/13 03:16:47;;;;;;;9.80;6.13;;;19.60;99.90;;;;;;4985727;28;20474;-66
2023/09/13 03:19:14;;;;;;;7.00;6.10;;;19.70;99.90;;;;;;4992782;28;20490;-65
2023/09/13 03:21:44;;;;;;;9.00;5.80;;;19.70;99.90;;;;;;4992597;28;20500;-66
2023/09/13 03:24:11;;;;;;;8.70;5.33;;;19.70;99.90;;;;;;4995630;28;20485;-66
2023/09/13 03:26:39;;;;;;;14.10;5.83;;;19.70;99.90;;;;;;4990111;28;20478;-67
2023/09/13 03:29:06;;;;;;;9.20;5.83;;;19.60;99.90;;;;;;4990741;28;20512;-66
2023/09/13 03:31:32;;;;;;;10.67;6.40;;;19.50;99.90;;;;;;4991665;28;20477;-66
2023/09/13 03:33:59;;;;;;;8.30;5.33;;;19.50;99.90;;;;;;4994079;28;20474;-66
2023/09/13 03:36:27;;;;;;;13.43;6.70;;;19.50;99.90;;;;;;4996831;28;20461;-66
2023/09/13 03:38:54;;;;;;;7.10;5.20;;;19.50;99.90;;;;;;4993501;28;20567;-66
2023/09/13 03:41:22;;;;;;;7.17;5.50;;;19.50;99.90;;;;;;4988249;28;20864;-66
2023/09/13 03:43:51;;;;;;;8.07;5.33;;;19.70;99.90;;;;;;4989329;28;20490;-66
2023/09/13 03:46:17;;;;;;;10.07;7.10;;;19.80;99.90;;;;;;4984081;28;20605;-66
2023/09/13 03:48:44;;;;;;;8.50;4.53;;;19.70;99.90;;;;;;4993559;28;20595;-66
2023/09/13 03:51:12;;;;;;;14.13;6.37;;;19.70;99.90;;;;;;4997869;28;20486;-66
2023/09/13 03:53:38;;;;;;;9.47;6.80;;;19.50;99.90;;;;;;4988941;28;20486;-66
2023/09/13 03:56:06;;;;;;;8.50;5.63;;;19.50;99.90;;;;;;4990493;28;20476;-66
2023/09/13 03:58:34;;;;;;;8.73;5.30;;;19.50;99.90;;;;;;5000072;28;20578;-66
2023/09/13 04:01:04;;;;;;;8.77;5.60;;;19.50;99.90;;;;;;4993655;28;20471;-66
2023/09/13 04:03:31;;;;;;;8.00;5.97;;;19.50;99.90;;;;;;4991534;28;20473;-66
2023/09/13 04:05:58;;;;;;;12.00;6.67;;;19.50;99.90;;;;;;4995053;28;21198;-66
2023/09/13 04:08:25;;;;;;;9.30;6.63;;;19.60;99.90;;;;;;4990983;28;20487;-66
2023/09/13 04:10:52;;;;;;;7.47;5.13;;;19.70;99.90;;;;;;5004432;28;21159;-66
2023/09/13 04:13:18;;;;;;;10.43;5.33;;;19.70;99.90;;;;;;4988539;28;20486;-66
2023/09/13 04:15:45;;;;;;;8.00;6.20;;;19.80;99.90;;;;;;5003916;28;20484;-66
2023/09/13 04:18:13;;;;;;;8.07;5.23;;;19.90;99.90;;;;;;4988729;28;20659;-66
2023/09/13 04:20:45;;;;;;;7.57;4.80;;;20.00;99.90;;;;;;4994744;28;20492;-66
2023/09/13 04:23:12;;;;;;;10.50;6.33;;;20.00;99.90;;;;;;4985901;28;20489;-66
2023/09/13 04:25:38;;;;;;;11.73;6.90;;;20.10;99.90;;;;;;4982112;28;20846;-66
2023/09/13 04:28:06;;;;;;;7.63;5.80;;;20.20;99.90;;;;;;4988257;28;20482;-66
2023/09/13 04:30:32;;;;;;;6.43;5.30;;;20.20;99.90;;;;;;4987714;28;20880;-66
2023/09/13 04:33:02;;;;;;;9.70;5.70;;;20.20;99.90;;;;;;4982753;28;20466;-66
2023/09/13 04:35:30;;;;;;;9.20;6.63;;;20.20;99.90;;;;;;4987489;28;20839;-66
2023/09/13 04:37:57;;;;;;;9.90;6.33;;;20.10;99.90;;;;;;4992186;28;20513;-66
2023/09/13 04:40:23;;;;;;;10.63;7.63;;;20.10;99.90;;;;;;4996155;28;20581;-66
2023/09/13 04:42:54;;;;;;;10.03;7.83;;;20.10;99.90;;;;;;4984863;28;20491;-66
2023/09/13 04:45:21;;;;;;;13.60;6.50;;;20.00;99.90;;;;;;4986860;28;20482;-66
2023/09/13 04:47:48;;;;;;;12.20;8.83;;;19.90;99.90;;;;;;5011748;28;20509;-66
2023/09/13 04:50:15;;;;;;;11.50;7.20;;;19.80;99.90;;;;;;4997178;28;20485;-66
2023/09/13 04:52:43;;;;;;;13.63;6.77;;;19.70;99.90;;;;;;4985094;28;20481;-67
2023/09/13 04:55:10;;;;;;;12.80;8.03;;;19.60;99.90;;;;;;4982782;28;20493;-66
2023/09/13 04:57:37;;;;;;;10.30;7.57;;;19.60;99.90;;;;;;4985083;28;20493;-66
2023/09/13 05:00:07;;;;;;;10.37;7.37;;;19.50;99.90;;;;;;5007095;28;20524;-66
2023/09/13 05:02:34;;;;;;;12.23;7.43;;;19.40;99.90;;;;;;4984291;28;21086;-66
2023/09/13 05:05:01;;;;;;;8.40;6.50;;;19.40;99.90;;;;;;4988185;28;20489;-67
2023/09/13 05:07:28;;;;;;;11.47;7.10;;;19.40;99.90;;;;;;4988244;28;20481;-66
2023/09/13 05:09:56;;;;;;;10.90;6.80;;;19.40;99.90;;;;;;4992237;28;20507;-66
2023/09/13 05:12:23;;;;;;;13.53;7.33;;;19.40;99.90;;;;;;4997469;28;21242;-67
2023/09/13 05:14:50;;;;;;;15.30;8.07;;;19.40;99.90;;;;;;4991396;28;20478;-67
2023/09/13 05:17:17;;;;;;;7.73;6.67;;;19.50;99.90;;;;;;4990994;28;20859;-67
2023/09/13 05:19:43;;;;;;;9.23;6.00;;;19.50;99.90;;;;;;4990728;28;20484;-67
2023/09/13 05:22:10;;;;;;;12.47;6.60;;;19.60;99.90;;;;;;4984549;28;20479;-67
2023/09/13 05:24:37;;;;;;;9.53;7.53;;;19.70;99.90;;;;;;4984694;28;20485;-66
2023/09/13 05:27:06;;;;;;;10.17;6.17;;;19.70;99.90;;;;;;4989836;28;20967;-67
2023/09/13 05:29:32;;;;;;;8.40;6.80;;;19.80;99.90;;;;;;4989318;28;20712;-66
2023/09/13 05:31:59;;;;;;;10.37;6.37;;;19.80;99.90;;;;;;4993660;28;20529;-66
2023/09/13 05:34:26;;;;;;;9.63;7.43;;;19.90;99.90;;;;;;5003483;28;20488;-67
2023/09/13 05:36:53;;;;;;;13.73;7.93;;;20.00;99.90;;;;;;4982632;28;20828;-66
2023/09/13 05:39:20;;;;;;;13.50;7.43;;;20.10;99.90;;;;;;4990830;28;20841;-66
2023/09/13 05:41:46;;;;;;;10.03;6.27;;;20.10;99.90;;;;;;4993164;28;20486;-66
2023/09/13 05:44:19;;;;;;;13.90;7.10;;;20.20;99.90;;;;;;4987909;28;20477;-67
2023/09/13 05:46:46;;;;;;;7.63;5.87;;;20.20;99.90;;;;;;4989090;28;20510;-66
2023/09/13 05:49:12;;;;;;;12.90;7.50;;;20.10;99.90;;;;;;4987256;28;20861;-66
2023/09/13 05:51:39;;;;;;;11.73;6.93;;;20.20;99.90;;;;;;4992333;28;20945;-66
2023/09/13 05:54:06;;;;;;;7.70;6.07;;;20.20;99.90;;;;;;4994075;28;20870;-66
2023/09/13 05:56:33;;;;;;;9.07;6.70;;;20.30;99.90;;;;;;4983951;28;20881;-66
2023/09/13 05:58:59;;;;;;;11.37;7.57;;;20.20;99.90;;;;;;4990358;28;20814;-66
2023/09/13 06:01:27;;;;;;;12.50;7.90;;;20.10;99.90;;;;;;4982659;28;20483;-66
2023/09/13 06:03:54;;;;;;;9.67;6.80;;;20.20;99.90;;;;;;4994315;28;21008;-67
2023/09/13 06:06:21;;;;;;;11.17;7.27;;;20.10;99.90;;;;;;4987244;28;20487;-65
2023/09/13 06:08:48;;;;;;;13.60;6.60;;;20.20;99.90;;;;;;4987952;28;20523;-66
2023/09/13 06:11:17;;;;;;;10.90;6.83;;;20.30;99.90;;;;;;4995977;28;20488;-67
2023/09/13 06:13:44;;;;;;;9.63;6.93;;;20.40;99.90;;;;;;4995215;28;20838;-66
2023/09/13 06:16:11;;;;;;;15.80;7.70;;;20.40;99.90;;;;;;4991349;28;20485;-66
2023/09/13 06:18:39;;;;;;;13.27;8.10;;;20.40;99.90;;;;;;4983895;28;21001;-66
2023/09/13 06:21:06;;;;;;;9.23;6.20;;;20.40;99.90;;;;;;4985741;28;20907;-66
2023/09/13 06:23:35;;;;;;;10.80;6.73;;;20.60;99.90;;;;;;4988906;28;20890;-66
2023/09/13 06:26:02;;;;;;;11.57;6.90;;;20.60;99.90;;;;;;4985763;28;20954;-66
2023/09/13 06:28:29;;;;;;;8.40;6.03;;;20.70;99.90;;;;;;5013860;28;20485;-66
2023/09/13 06:30:57;;;;;;;9.80;6.57;;;20.80;99.90;;;;;;4998854;28;20485;-66
2023/09/13 06:33:25;;;;;;;10.87;6.10;;;20.80;99.90;;;;;;5000260;28;20517;-66
2023/09/13 06:35:53;;;;;;;10.20;6.93;;;21.00;99.90;;;;;;4991961;28;20487;-66
2023/09/13 06:38:20;;;;;;;9.87;6.17;;;21.00;99.90;;;;;;5001848;28;21033;-66
2023/09/13 06:40:48;;;;;;;11.90;7.27;;;21.10;99.90;;;;;;5004944;28;20854;-66
2023/09/13 06:43:14;;;;;;;10.60;7.00;;;21.00;99.90;;;;;;4991759;28;20888;-66
2023/09/13 06:45:41;;;;;;;9.27;6.97;;;21.00;99.90;;;;;;4987272;28;20482;-66
2023/09/13 06:48:08;;;;;;;8.00;6.63;;;21.00;99.90;;;;;;4994132;28;21297;-66
2023/09/13 06:50:35;;;;;;;8.03;5.90;;;20.90;99.90;;;;;;4998386;28;20882;-66
2023/09/13 06:53:03;;;;;;;6.67;5.63;;;20.80;99.90;;;;;;4992393;28;20847;-66
2023/09/13 06:55:31;;;;;;;7.17;5.20;;;20.80;99.90;;;;;;4990707;28;20483;-66
2023/09/13 06:57:58;;;;;;;9.83;6.30;;;20.90;99.90;;;;;;4991897;28;21091;-66
2023/09/13 07:00:24;;;;;;;9.23;5.73;;;20.90;99.90;;;;;;5000002;28;20478;-67
2023/09/13 07:02:51;;;;;;;7.90;6.30;;;20.90;99.90;;;;;;4983449;28;20489;-67
2023/09/13 07:05:18;;;;;;;8.03;6.10;;;20.80;99.90;;;;;;4987030;28;20486;-66
2023/09/13 07:07:45;;;;;;;9.50;6.40;;;20.80;99.90;;;;;;4983450;28;20498;-66
2023/09/13 07:10:13;;;;;;;6.53;5.10;;;20.90;99.90;;;;;;4997287;28;20490;-66
2023/09/13 07:12:39;;;;;;;9.07;5.23;;;20.80;99.90;;;;;;4985958;28;20493;-66
2023/09/13 07:15:08;;;;;;;6.57;5.17;;;20.90;99.90;;;;;;4987404;28;20485;-66
2023/09/13 07:17:34;;;;;;;9.87;5.87;;;20.90;99.90;;;;;;4989275;28;20694;-66
2023/09/13 07:20:04;;;;;;;6.00;5.40;;;21.00;99.90;;;;;;5013268;28;20484;-66
2023/09/13 07:22:31;;;;;;;6.40;4.93;;;21.00;99.90;;;;;;4992111;28;20472;-67
2023/09/13 07:24:59;;;;;;;8.70;5.23;;;21.00;99.90;;;;;;4991786;28;20493;-66
2023/09/13 07:27:27;;;;;;;5.83;4.93;;;21.10;99.90;;;;;;4991991;28;20847;-67
2023/09/13 07:29:54;;;;;;;7.33;4.60;;;21.20;99.90;;;;;;4991525;28;20856;-65
2023/09/13 07:32:21;;;;;;;6.93;5.17;;;21.20;99.90;;;;;;4989211;28;20497;-67
2023/09/13 07:34:48;;;;;;;7.30;5.10;;;21.20;99.90;;;;;;4997035;28;20465;-67
2023/09/13 07:37:14;;;;;;;7.83;6.20;;;21.20;99.90;;;;;;4986662;28;20482;-67
2023/09/13 07:39:42;;;;;;;10.97;6.50;;;21.10;99.90;;;;;;4989122;28;20489;-67
2023/09/13 07:42:11;;;;;;;8.40;6.67;;;21.30;99.90;;;;;;4986639;28;20481;-66
2023/09/13 07:44:39;;;;;;;8.27;5.90;;;21.50;99.90;;;;;;4988422;28;20555;-66
2023/09/13 07:47:06;;;;;;;7.57;6.30;;;22.00;99.90;;;;;;4982865;28;20498;-67
2023/09/13 07:49:32;;;;;;;8.03;5.33;;;22.10;99.90;;;;;;4983804;28;20506;-66
2023/09/13 07:51:59;;;;;;;6.60;4.87;;;22.20;99.90;;;;;;4994949;28;20888;-65
2023/09/13 07:54:26;;;;;;;9.63;6.30;;;22.40;99.90;;;;;;4980120;28;20487;-65
2023/09/13 07:56:52;;;;;;;7.10;6.30;;;22.40;99.90;;;;;;4996683;28;20881;-65
2023/09/13 07:59:19;;;;;;;8.70;6.50;;;22.40;99.90;;;;;;4989568;28;20685;-66
2023/09/13 08:01:48;;;;;;;7.03;6.30;;;22.30;99.90;;;;;;4993918;28;20852;-66
2023/09/13 08:04:15;;;;;;;5.47;4.97;;;22.30;99.90;;;;;;4977605;28;20956;-66
2023/09/13 08:06:42;;;;;;;8.07;5.43;;;22.10;99.90;;;;;;4991260;28;20478;-65
2023/09/13 08:09:09;;;;;;;7.63;6.40;;;22.30;99.90;;;;;;4996786;28;20542;-66
2023/09/13 08:11:36;;;;;;;8.87;6.17;;;22.40;99.90;;;;;;4991050;28;20489;-65
2023/09/13 08:14:02;;;;;;;6.80;5.70;;;22.10;99.90;;;;;;4991215;28;20487;-66
2023/09/13 08:16:29;;;;;;;6.80;5.03;;;22.00;99.90;;;;;;4991764;28;20884;-66
2023/09/13 08:18:57;;;;;;;9.17;5.37;;;22.00;99.90;;;;;;4996339;28;21261;-67
2023/09/13 08:21:24;;;;;;;7.57;5.63;;;21.90;99.90;;;;;;4995063;28;20484;-66
2023/09/13 08:23:51;;;;;;;8.70;5.77;;;21.80;99.90;;;;;;4994978;28;20775;-65
2023/09/13 08:26:18;;;;;;;7.90;5.00;;;22.00;99.90;;;;;;4985124;28;20490;-65
2023/09/13 08:28:45;;;;;;;10.93;5.20;;;22.00;99.90;;;;;;4983733;28;20466;-65
2023/09/13 08:31:12;;;;;;;11.77;5.20;;;22.10;99.90;;;;;;4985603;28;21143;-66
2023/09/13 08:33:38;;;;;;;5.83;3.90;;;22.20;99.90;;;;;;4988631;28;20493;-65
2023/09/13 08:36:08;;;;;;;7.20;4.60;;;22.20;99.90;;;;;;4985166;28;20490;-65
2023/09/13 08:38:34;;;;;;;6.33;4.70;;;22.30;99.90;;;;;;4986616;28;21027;-66
2023/09/13 08:41:02;;;;;;;7.63;6.17;;;22.30;99.90;;;;;;4994688;28;20511;-64
2023/09/13 08:43:29;;;;;;;7.37;6.10;;;22.30;99.90;;;;;;4984416;28;20560;-64
2023/09/13 08:45:57;;;;;;;8.90;5.93;;;22.30;99.90;;;;;;4988543;28;20489;-65
2023/09/13 08:48:25;;;;;;;7.73;5.93;;;22.40;99.90;;;;;;4982466;28;20482;-65
2023/09/13 08:50:53;;;;;;;11.90;6.73;;;22.30;99.90;;;;;;4990092;28;20953;-66
2023/09/13 08:53:23;;;;;;;12.70;6.80;;;22.40;99.90;;;;;;4987214;28;20484;-66
2023/09/13 08:55:51;;;;;;;5.70;5.10;;;22.50;99.90;;;;;;5006538;28;20477;-65
2023/09/13 08:58:18;;;;;;;6.77;6.10;;;22.50;99.90;;;;;;4999943;28;20505;-66
2023/09/13 09:00:48;;;;;;;9.47;6.70;;;22.50;99.90;;;;;;4986467;28;20847;-65
2023/09/13 09:03:17;;;;;;;8.63;5.67;;;22.50;99.90;;;;;;4971321;28;21187;-65
2023/09/13 09:05:46;;;;;;;11.53;6.60;;;22.40;99.90;;;;;;4988305;28;20486;-65
2023/09/13 09:08:14;;;;;;;9.20;6.77;;;22.50;99.90;;;;;;4983574;28;21167;-65
2023/09/13 09:10:44;;;;;;;12.63;8.27;;;22.50;99.90;;;;;;4990333;28;20485;-65
2023/09/13 09:13:13;;;;;;;15.27;8.47;;;22.50;99.80;;;;;;4990404;28;20852;-65
2023/09/13 09:15:41;;;;;;;15.77;8.60;;;22.60;99.80;;;;;;4983137;28;20838;-65
2023/09/13 09:18:11;;;;;;;11.67;8.27;;;22.60;99.30;;;;;;4985720;28;20533;-65
2023/09/13 09:20:39;;;;;;;12.13;6.90;;;22.50;99.60;;;;;;4992754;28;21048;-65
2023/09/13 09:23:07;;;;;;;15.47;7.33;;;22.50;99.30;;;;;;5002506;28;20925;-65
2023/09/13 09:25:34;;;;;;;7.50;5.50;;;22.60;99.60;;;;;;5004989;28;20480;-65
2023/09/13 09:28:02;;;;;;;10.77;6.13;;;22.70;99.60;;;;;;4980472;28;20474;-65
2023/09/13 09:30:31;;;;;;;9.67;6.20;;;22.70;99.40;;;;;;4999729;28;20484;-65
2023/09/13 09:33:01;;;;;;;9.17;7.00;;;22.80;99.60;;;;;;4991729;28;20487;-66
2023/09/13 09:35:28;;;;;;;10.70;6.30;;;22.90;99.20;;;;;;4987280;28;20488;-65
2023/09/13 09:37:54;;;;;;;14.20;6.20;;;22.90;99.00;;;;;;4991463;28;20489;-65
2023/09/13 09:40:21;;;;;;;13.87;8.27;;;23.00;99.30;;;;;;4995309;28;20469;-65
2023/09/13 09:42:53;;;;;;;12.37;7.57;;;23.00;99.20;;;;;;4974773;28;20806;-65
2023/09/13 09:45:21;;;;;;;11.97;7.20;;;23.20;99.30;;;;;;4990046;28;20587;-65
2023/09/13 09:47:50;;;;;;;7.50;6.20;;;23.30;99.00;;;;;;4984600;28;20479;-66
2023/09/13 09:50:17;;;;;;;9.70;6.87;;;23.30;99.20;;;;;;4976650;28;20493;-66
2023/09/13 09:52:48;;;;;;;8.10;6.27;;;23.20;99.10;;;;;;4979760;28;20701;-66
2023/09/13 09:55:16;;;;;;;12.60;6.60;;;23.20;99.20;;;;;;4980732;28;20973;-66
2023/09/13 09:57:46;;;;;;;6.23;5.33;;;23.10;99.10;;;;;;4988069;28;20544;-66
2023/09/13 10:00:15;;;;;;;9.53;7.60;;;23.10;98.90;;;;;;4986399;28;21091;-66
2023/09/13 10:02:44;;;;;;;14.00;7.40;;;23.00;98.70;;;;;;4988764;28;20481;-66
2023/09/13 10:05:13;;;;;;;7.83;6.40;;;23.00;99.00;;;;;;4985835;28;20471;-66
2023/09/13 10:07:41;;;;;;;12.23;6.13;;;23.00;99.30;;;;;;4992418;28;20524;-66
2023/09/13 10:10:10;;;;;;;7.23;6.27;;;23.10;99.00;;;;;;4989164;28;21132;-66
2023/09/13 10:12:45;;;;;;;10.07;7.73;;;23.10;98.80;;;;;;4988693;28;20490;-66
2023/09/13 10:15:12;;;;;;;9.77;7.00;;;23.20;99.10;;;;;;4991827;28;20489;-65
2023/09/13 10:17:40;;;;;;;10.87;7.27;;;23.20;98.40;;;;;;4985830;28;20482;-65
2023/09/13 10:20:14;;;;;;;9.63;6.70;;;23.30;98.60;;;;;;4993809;28;20493;-65
2023/09/13 10:22:43;;;;;;;8.30;6.50;;;23.60;98.70;;;;;;4987432;28;20770;-66
2023/09/13 10:25:12;;;;;;;11.50;6.40;;;23.70;99.00;;;;;;4991933;28;20509;-66
2023/09/13 10:27:40;;;;;;;11.43;8.07;;;24.00;98.90;;;;;;4985043;28;20545;-66
2023/09/13 10:30:10;;;;;;;9.00;6.80;;;24.00;98.10;;;;;;4988844;28;20496;-66
2023/09/13 10:32:45;;;;;;;9.83;7.90;;;24.00;97.80;;;;;;5006243;28;20520;-65
2023/09/13 10:35:15;;;;;;;9.80;6.57;;;23.80;97.90;;;;;;4984927;28;20492;-65
2023/09/13 10:37:51;;;;;;;9.90;6.33;;;23.70;97.80;;;;;;4985329;28;20499;-65
2023/09/13 10:40:23;;;;;;;11.67;8.00;;;23.70;97.70;;;;;;4989274;28;20715;-65
2023/09/13 10:42:50;;;;;;;7.73;6.50;;;23.80;97.90;;;;;;4990609;28;20489;-65
2023/09/13 10:45:18;;;;;;;11.33;7.37;;;23.80;97.90;;;;;;4989803;28;21229;-65
2023/09/13 10:47:47;;;;;;;7.33;6.63;;;23.80;97.40;;;;;;4987391;28;20857;-65
2023/09/13 10:50:17;;;;;;;9.47;6.90;;;23.70;97.70;;;;;;4991424;28;20480;-65
2023/09/13 10:52:44;;;;;;;11.57;8.20;;;23.90;98.30;;;;;;4992836;28;20915;-66
2023/09/13 10:55:12;;;;;;;9.33;7.33;;;23.80;98.10;;;;;;4989965;28;20443;-66
2023/09/13 10:57:41;;;;;;;17.10;8.57;;;23.70;97.90;;;;;;4992969;28;20501;-66
2023/09/13 11:00:10;;;;;;;8.27;6.47;;;23.70;97.80;;;;;;4993656;28;20883;-66
2023/09/13 11:02:37;;;;;;;9.43;7.10;;;23.80;98.50;;;;;;4981607;28;20571;-66
2023/09/13 11:05:05;;;;;;;8.23;6.87;;;23.80;97.50;;;;;;4996410;28;20896;-66
2023/09/13 11:07:38;;;;;;;12.77;8.23;;;24.10;98.00;;;;;;4989936;28;20484;-66
2023/09/13 11:10:05;;;;;;;10.00;7.50;;;24.30;97.50;;;;;;4991855;28;20896;-66
2023/09/13 11:12:36;;;;;;;8.53;6.27;;;24.30;96.70;;;;;;4989680;28;20481;-67
2023/09/13 11:15:13;;;;;;;7.43;6.00;;;24.50;96.70;;;;;;4995312;28;20501;-67
2023/09/13 11:17:41;;;;;;;6.47;5.80;;;24.80;97.20;;;;;;4990769;28;20481;-67
2023/09/13 11:20:27;;;;;;;8.50;6.90;;;25.00;96.30;;;;;;4991899;28;20538;-67
2023/09/13 11:23:05;;;;;;;7.67;6.53;;;25.10;96.50;;;;;;4992340;28;20552;-67
2023/09/13 11:25:35;;;;;;;7.73;5.43;;;25.00;95.30;;;;;;4984707;28;20780;-66
2023/09/13 11:28:06;;;;;;;6.77;5.10;;;24.90;94.70;;;;;;4984973;28;21137;-66
2023/09/13 11:30:47;;;;;;;5.80;5.20;;;24.90;95.70;;;;;;4994991;28;20920;-66
2023/09/13 11:33:14;;;;;;;9.07;5.13;;;24.80;94.90;;;;;;4989955;28;20483;-67
2023/09/13 11:35:41;;;;;;;7.90;5.37;;;24.70;95.20;;;;;;4992606;28;20509;-66
2023/09/13 11:38:09;;;;;;;14.13;4.97;;;24.70;94.80;;;;;;4994388;28;21104;-66
2023/09/13 11:40:36;;;;;;;6.90;4.57;;;24.60;95.40;;;;;;4992202;28;20484;-66
2023/09/13 11:43:04;;;;;;;8.03;5.63;;;24.80;96.30;;;;;;4992290;28;20688;-67
2023/09/13 11:45:33;;;;;;;5.67;5.07;;;25.10;97.00;;;;;;4992054;28;20515;-67
2023/09/13 11:48:00;;;;;;;5.40;4.90;;;25.60;97.10;;;;;;4985251;28;20823;-67
2023/09/13 11:50:27;;;;;;;7.07;4.67;;;25.70;94.10;;;;;;5000859;28;20478;-66
2023/09/13 11:53:12;;;;;;;7.20;4.70;;;25.60;93.20;;;;;;4988447;28;20901;-66
2023/09/13 11:55:39;;;;;;;5.90;5.30;;;25.70;94.80;;;;;;4987526;28;20517;-67
2023/09/13 11:58:06;;;;;;;4.50;3.70;;;26.10;94.50;;;;;;4992332;28;20477;-67
2023/09/13 12:00:41;;;;;;;7.23;4.93;;;26.40;93.80;;;;;;4991501;28;20984;-67
2023/09/13 12:03:08;;;;;;;4.93;4.43;;;26.70;93.80;;;;;;4987520;28;20530;-67
2023/09/13 12:05:36;;;;;;;5.90;5.00;;;26.80;93.20;;;;;;5002638;28;20484;-67
2023/09/13 12:08:03;;;;;;;6.47;5.07;;;26.60;92.10;;;;;;4992417;28;20752;-67
2023/09/13 12:10:35;;;;;;;3.70;3.23;;;26.50;93.20;;;;;;4993777;28;21111;-67
2023/09/13 12:13:02;;;;;;;4.53;3.57;;;26.50;93.00;;;;;;4982196;28;20497;-68
2023/09/13 12:15:29;;;;;;;4.60;4.20;;;26.20;92.00;;;;;;4993167;28;20999;-67
2023/09/13 12:18:01;;;;;;;3.93;3.50;;;26.00;92.00;;;;;;4996126;28;20504;-67
2023/09/13 12:20:31;;;;;;;4.80;3.20;;;25.70;91.90;;;;;;4990921;28;20916;-67
2023/09/13 12:22:58;;;;;;;3.40;3.07;;;25.50;92.70;;;;;;4980806;28;21017;-67
2023/09/13 12:25:25;;;;;;;3.47;3.17;;;25.40;92.90;;;;;;4990459;28;20485;-67
2023/09/13 12:27:53;;;;;;;4.20;3.70;;;25.30;92.80;;;;;;4985065;28;20689;-67
2023/09/13 12:30:21;;;;;;;4.10;3.70;;;25.20;92.50;;;;;;4990846;28;20470;-67
2023/09/13 12:32:50;;;;;;;3.60;3.13;;;25.00;93.10;;;;;;4992470;28;20650;-67
2023/09/13 12:35:17;;;;;;;7.43;3.10;;;25.00;93.40;;;;;;4989865;28;20775;-67
2023/09/13 12:37:57;;;;;;;3.33;2.97;;;25.00;93.60;;;;;;4988162;28;20615;-67
2023/09/13 12:40:27;;;;;;;3.33;2.73;;;24.90;93.80;;;;;;4983461;28;20596;-67
2023/09/13 12:42:56;;;;;;;4.10;3.00;;;25.00;94.30;;;;;;4987512;28;20478;-67
2023/09/13 12:45:23;;;;;;;4.30;3.30;;;25.00;94.30;;;;;;4988864;28;20660;-66
2023/09/13 12:47:50;;;;;;;4.23;3.83;;;25.20;94.20;;;;;;4990755;28;20830;-67